Hovedside
METAR-TAF:

METAR-TAF

Lufthavner :

Belgaum, India

breddegrad: 15-51-33N, lengdegrad: 74-37-03E, høyde over havet: 758 m

Gjeldene værobservasjon

Denne rapporten ble laget for 34 minutter siden, klokken 01:30 UTC
Vind 10 kt fra Vest-sørvest
Temperatur 23°C
Luftfuktighet 94%
Trykk 1010 hPa
Sikt: 6000 m
Spredte skyer i en høyde av 700 ft
Spredte skyer i en høyde av 1200 ft
Brutte skyer i en høyde av 8000 ft

METAR: VOBM 200130Z 25010KT 6000 SCT007 SCT012 BKN080 23/22 Q1010

Tid: 07:34 (02:04 UTC)

Varsel

Denne rapporten ble laget for 3 timer og 4 minutter siden, klokken 23:00 UTC
Varsel gyldig fra 20. klokken 00 UTC til 20. klokken 09 UTC
Vind 10 kt fra Vest-sørvest
Sikt: 6000 m
Spredte skyer i en høyde av 1200 ft
Spredte skyer i en høyde av 8000 ft
Midlertidig
fra 20. klokken 00 UTC til 20. klokken 03 UTC
Sikt: 3000 m
Spredte skyer i en høyde av 800 ft
Spredte skyer i en høyde av 1200 ft
dis,

TAF: VOBM 192300Z 2000/2009 25010KT 6000 SCT012 SCT080 TEMPO 2000/2003 3000 BR SCT008 SCT012

Værobservasjoner og værvarsel for over 4000 flyplasser (METAR- og TAF-rapporter).

Tilgjengelige stasjoner er representert av de røde og gule prikkene på kartet.

Hold musepekeren over prikken for å se navnet på stasjonen.

Klikk så for å se værobservasjoner og -varsler.

For å forandre kartet kan du klikke på den grønne knappen med svart kryss for å zoome inn, på den grønne knappen med strek for å zoome ut, eller på de grønne pilene for å se tilstøtende kart.


METAR-TAF: